Time;durP1;ratioP1;P1;durP2;ratioP2;P2;SDS_P1;SDS_P2;PMS_P1;PMS_P2;Temp;Humidity;BMP_temperature;BMP_pressure;BME280_temperature;BME280_humidity;BME280_pressure;Samples;Min_cycle;Max_cycle;Signal;HPM_P1;HPM_P2
2022/09/13 00:00:41;;;;;;;1.80;1.40;;;17.40;99.90;;;;;;5072805;28;19924;-77
2022/09/13 00:03:08;;;;;;;;;;;17.50;99.90;;;;;;5059345;28;20499;-77
2022/09/13 00:05:34;;;;;;;;;;;17.50;99.90;;;;;;5090073;28;19939;-79
2022/09/13 00:08:00;;;;;;;2.63;2.42;;;17.40;99.90;;;;;;5089795;28;19927;-79
2022/09/13 00:10:26;;;;;;;1.15;1.05;;;17.40;99.90;;;;;;5073980;28;20402;-81
2022/09/13 00:12:53;;;;;;;;;;;17.40;99.90;;;;;;5064222;28;20124;-77
2022/09/13 00:15:19;;;;;;;;;;;17.50;99.90;;;;;;5081844;28;19916;-80
2022/09/13 00:17:45;;;;;;;3.13;1.85;;;17.40;99.90;;;;;;5081668;28;19919;-79
2022/09/13 00:20:10;;;;;;;;;;;17.40;99.90;;;;;;5046306;28;20052;-80
2022/09/13 00:22:41;;;;;;;0.57;0.57;;;17.40;99.90;;;;;;5082324;28;19927;-77
2022/09/13 00:25:07;;;;;;;1.08;0.98;;;17.30;99.90;;;;;;5056866;28;20057;-80
2022/09/13 00:27:33;;;;;;;2.40;2.20;;;17.30;99.90;;;;;;5053263;28;20047;-81
2022/09/13 00:29:59;;;;;;;0.77;0.75;;;17.30;99.90;;;;;;5096621;28;20079;-75
2022/09/13 00:32:26;;;;;;;0.30;0.30;;;17.30;99.90;;;;;;5079683;28;20044;-79
2022/09/13 00:34:52;;;;;;;0.82;0.80;;;17.20;99.90;;;;;;5073123;28;20053;-79
2022/09/13 00:37:19;;;;;;;;;;;17.20;99.90;;;;;;5075503;28;20122;-77
2022/09/13 00:39:44;;;;;;;0.35;0.35;;;17.20;99.90;;;;;;5082879;28;20396;-77
2022/09/13 00:42:14;;;;;;;0.82;0.63;;;17.20;99.90;;;;;;5082095;28;20087;-76
2022/09/13 00:44:52;;;;;;;3.40;3.13;;;17.20;99.90;;;;;;5069835;28;20053;-76
2022/09/13 00:47:36;;;;;;;0.80;0.80;;;17.40;99.90;;;;;;5065753;28;20040;-79
2022/09/13 00:50:10;;;;;;;0.68;0.68;;;17.10;99.90;;;;;;5083530;28;20051;-81
2022/09/13 00:52:39;;;;;;;1.55;1.48;;;17.10;99.90;;;;;;5062631;28;20097;-75
2022/09/13 00:55:12;;;;;;;1.98;1.42;;;17.10;99.90;;;;;;5074864;28;20055;-80
2022/09/13 00:57:39;;;;;;;0.85;0.85;;;17.10;99.90;;;;;;5042764;28;20056;-79
2022/09/13 01:00:12;;;;;;;1.40;1.00;;;17.10;99.90;;;;;;5064090;28;20060;-82
2022/09/13 01:03:04;;;;;;;1.48;1.23;;;17.00;99.90;;;;;;5067523;28;20106;-76
2022/09/13 01:05:35;;;;;;;2.03;1.50;;;17.00;99.90;;;;;;5082456;28;20440;-80
2022/09/13 01:08:02;;;;;;;1.90;1.50;;;17.00;99.90;;;;;;5063588;28;20360;-79
2022/09/13 01:10:30;;;;;;;1.23;0.88;;;17.00;99.90;;;;;;5053982;28;20041;-79
2022/09/13 01:13:13;;;;;;;1.40;0.98;;;17.00;99.90;;;;;;5064144;28;20051;-77
2022/09/13 01:15:40;;;;;;;0.55;0.55;;;17.00;99.90;;;;;;5054301;28;20040;-77
2022/09/13 01:18:08;;;;;;;2.05;1.95;;;17.00;99.90;;;;;;5081172;28;20045;-81
2022/09/13 01:21:12;;;;;;;0.50;0.50;;;17.00;99.90;;;;;;5045276;28;20503;-76
2022/09/13 01:23:59;;;;;;;1.58;1.30;;;16.90;99.90;;;;;;5053785;28;20071;-79
2022/09/13 01:27:04;;;;;;;0.93;0.93;;;17.00;99.90;;;;;;5068323;28;20044;-79
2022/09/13 01:29:44;;;;;;;0.80;0.80;;;17.00;99.90;;;;;;5076668;28;20101;-80
2022/09/13 01:32:47;;;;;;;0.30;0.30;;;17.00;99.90;;;;;;5055090;28;20489;-75
2022/09/13 01:35:34;;;;;;;1.98;0.98;;;16.90;99.90;;;;;;5070020;28;20044;-74
2022/09/13 01:38:22;;;;;;;1.75;1.48;;;16.90;99.90;;;;;;5059254;28;20041;-77
2022/09/13 01:41:05;;;;;;;0.55;0.55;;;16.90;99.90;;;;;;5067360;28;20070;-80
2022/09/13 01:43:59;;;;;;;1.67;1.08;;;16.90;99.90;;;;;;5072095;28;20044;-75
2022/09/13 01:46:48;;;;;;;0.40;0.40;;;17.00;99.90;;;;;;5062131;28;20044;-79
2022/09/13 01:49:32;;;;;;;0.63;0.63;;;17.00;99.90;;;;;;5057495;28;20041;-78
2022/09/13 01:52:11;;;;;;;1.67;1.58;;;17.00;99.90;;;;;;5072994;28;20040;-78
2022/09/13 01:55:09;;;;;;;1.73;1.63;;;17.00;99.90;;;;;;5069175;28;20140;-80
2022/09/13 01:58:03;;;;;;;1.17;1.08;;;17.00;99.90;;;;;;5061739;28;20041;-74
2022/09/13 02:00:35;;;;;;;2.15;0.77;;;17.00;99.90;;;;;;5055282;28;20499;-78
2022/09/13 02:03:13;;;;;;;0.52;0.50;;;17.00;99.90;;;;;;5074212;28;20089;-80
2022/09/13 02:06:01;;;;;;;0.88;0.88;;;17.00;99.90;;;;;;5078143;28;20048;-73
2022/09/13 02:08:53;;;;;;;0.90;0.75;;;17.00;99.90;;;;;;5072926;28;20475;-73
2022/09/13 02:11:21;;;;;;;1.15;1.15;;;17.00;99.90;;;;;;5075130;28;20467;-82
2022/09/13 02:14:18;;;;;;;2.60;1.33;;;17.00;99.90;;;;;;5058527;28;20040;-76
2022/09/13 02:17:04;;;;;;;2.00;1.15;;;17.10;99.90;;;;;;5046238;28;21689;-78
2022/09/13 02:19:54;;;;;;;1.70;1.60;;;17.10;99.90;;;;;;5071449;28;20044;-80
2022/09/13 02:22:30;;;;;;;0.40;0.40;;;17.10;99.90;;;;;;5077301;28;20072;-75
2022/09/13 02:25:02;;;;;;;0.77;0.77;;;17.10;99.90;;;;;;5081279;28;20505;-81
2022/09/13 02:27:32;;;;;;;0.85;0.82;;;17.10;99.90;;;;;;5076572;28;20049;-77
2022/09/13 02:30:03;;;;;;;2.85;0.98;;;17.20;99.90;;;;;;5057918;28;20037;-77
2022/09/13 02:32:43;;;;;;;1.75;0.70;;;17.30;99.90;;;;;;5086497;28;20091;-75
2022/09/13 02:35:23;;;;;;;1.23;1.15;;;17.20;99.90;;;;;;5071489;28;20549;-76
2022/09/13 02:37:58;;;;;;;0.57;0.57;;;17.20;99.90;;;;;;5066543;28;20399;-80
2022/09/13 02:40:29;;;;;;;0.73;0.50;;;17.20;99.90;;;;;;5068057;28;20389;-80
2022/09/13 02:43:09;;;;;;;1.10;0.77;;;17.30;99.90;;;;;;5060960;28;20033;-79
2022/09/13 02:45:45;;;;;;;1.35;1.10;;;17.30;99.90;;;;;;5070516;28;20483;-81
2022/09/13 02:48:24;;;;;;;0.40;0.40;;;17.30;99.90;;;;;;5069250;28;20047;-77
2022/09/13 02:51:09;;;;;;;1.35;1.30;;;17.30;99.90;;;;;;5059777;28;20605;-78
2022/09/13 02:53:43;;;;;;;2.45;1.95;;;17.30;99.90;;;;;;5062932;28;20082;-73
2022/09/13 02:56:41;;;;;;;0.65;0.55;;;17.30;99.90;;;;;;5079265;28;20044;-77
2022/09/13 02:59:16;;;;;;;0.50;0.50;;;17.30;99.90;;;;;;5059401;28;20448;-79
2022/09/13 03:01:55;;;;;;;0.65;0.60;;;17.30;99.90;;;;;;5065543;28;20057;-75
2022/09/13 03:04:21;;;;;;;0.38;0.38;;;17.20;99.90;;;;;;5072001;28;20062;-81
2022/09/13 03:06:48;;;;;;;;;;;17.30;99.90;;;;;;5047583;28;20515;-77
2022/09/13 03:09:14;;;;;;;1.23;0.47;;;17.20;99.90;;;;;;5073370;28;19966;-78
2022/09/13 03:11:53;;;;;;;;;;;17.20;99.90;;;;;;5057304;28;20048;-79
2022/09/13 03:14:47;;;;;;;0.40;0.40;;;17.10;99.90;;;;;;5055764;28;19916;-77
2022/09/13 03:17:36;;;;;;;0.30;0.30;;;16.90;99.90;;;;;;5075527;28;20075;-77
2022/09/13 03:20:08;;;;;;;1.38;0.68;;;16.90;99.90;;;;;;5061014;28;20147;-80
2022/09/13 03:22:55;;;;;;;0.52;0.52;;;16.80;99.90;;;;;;5064745;28;20044;-77
2022/09/13 03:25:36;;;;;;;;;;;16.70;99.90;;;;;;5056000;28;20428;-78
2022/09/13 03:28:02;;;;;;;0.20;0.20;;;16.70;99.90;;;;;;5069214;28;19920;-76
2022/09/13 03:30:31;;;;;;;0.20;0.20;;;16.70;99.90;;;;;;5081519;28;20093;-78
2022/09/13 03:33:19;;;;;;;0.20;0.20;;;16.70;99.90;;;;;;5073559;28;20048;-79
2022/09/13 03:36:03;;;;;;;0.20;0.20;;;16.70;99.90;;;;;;5070580;28;20052;-78
2022/09/13 03:38:38;;;;;;;0.22;0.22;;;16.70;99.90;;;;;;5077797;28;20044;-78
2022/09/13 03:41:15;;;;;;;0.30;0.30;;;16.70;99.90;;;;;;5058392;28;20044;-77
2022/09/13 03:43:49;;;;;;;0.17;0.17;;;16.70;99.90;;;;;;5059780;28;20106;-79
2022/09/13 03:46:35;;;;;;;0.17;0.17;;;16.70;99.90;;;;;;5050067;28;20041;-76
2022/09/13 03:49:07;;;;;;;0.25;0.25;;;16.70;99.90;;;;;;5032060;28;20035;-76
2022/09/13 03:51:34;;;;;;;0.20;0.20;;;16.70;99.90;;;;;;5090094;28;20393;-82
2022/09/13 03:54:08;;;;;;;0.20;0.20;;;16.70;99.90;;;;;;5069625;28;20057;-80
2022/09/13 03:56:40;;;;;;;0.10;0.10;;;16.70;99.90;;;;;;5067225;28;20166;-78
2022/09/13 03:59:05;;;;;;;0.60;0.60;;;16.70;99.90;;;;;;5053310;28;20119;-80
2022/09/13 04:01:34;;;;;;;0.35;0.28;;;16.70;99.90;;;;;;5069760;28;20048;-79
2022/09/13 04:04:04;;;;;;;0.40;0.40;;;16.70;99.90;;;;;;5056769;28;20036;-78
2022/09/13 04:06:30;;;;;;;0.20;0.20;;;16.80;99.90;;;;;;5066903;28;20469;-79
2022/09/13 04:08:56;;;;;;;0.20;0.20;;;16.70;99.90;;;;;;5081614;28;20036;-76
2022/09/13 04:11:22;;;;;;;0.20;0.20;;;16.70;99.90;;;;;;5090158;28;20055;-79
2022/09/13 04:13:48;;;;;;;0.30;0.30;;;16.70;99.90;;;;;;5084314;28;20119;-79
2022/09/13 04:16:14;;;;;;;;;;;16.70;99.90;;;;;;5041343;28;20039;-76
2022/09/13 04:18:39;;;;;;;0.20;0.20;;;16.70;99.90;;;;;;5064472;28;20325;-77
2022/09/13 04:21:05;;;;;;;0.20;0.20;;;16.70;99.90;;;;;;5029884;28;20053;-80
2022/09/13 04:23:30;;;;;;;;;;;16.70;99.90;;;;;;5072985;28;20040;-77
2022/09/13 04:26:01;;;;;;;0.30;0.30;;;16.70;99.90;;;;;;5075994;28;19924;-77
2022/09/13 04:28:27;;;;;;;0.40;0.40;;;16.70;99.90;;;;;;5065404;28;20044;-77
2022/09/13 04:30:52;;;;;;;0.20;0.20;;;16.70;99.90;;;;;;5066065;28;20435;-79
2022/09/13 04:33:24;;;;;;;0.20;0.20;;;16.70;99.90;;;;;;5067047;28;20398;-77
2022/09/13 04:35:57;;;;;;;0.10;0.10;;;16.70;99.90;;;;;;5055597;28;20056;-76
2022/09/13 04:38:22;;;;;;;0.32;0.32;;;16.70;99.90;;;;;;5067765;28;20048;-79
2022/09/13 04:40:52;;;;;;;;;;;16.70;99.90;;;;;;5066792;28;20044;-79
2022/09/13 04:43:19;;;;;;;0.20;0.20;;;16.70;99.90;;;;;;5047299;28;19920;-77
2022/09/13 04:45:45;;;;;;;0.20;0.20;;;16.60;99.90;;;;;;5069740;28;20398;-81
2022/09/13 04:48:11;;;;;;;0.22;0.22;;;16.60;99.90;;;;;;5057496;28;20052;-80
2022/09/13 04:50:37;;;;;;;;;;;16.70;99.90;;;;;;5070628;28;20052;-80
2022/09/13 04:53:03;;;;;;;0.20;0.20;;;16.60;99.90;;;;;;5073352;28;20293;-80
2022/09/13 04:55:28;;;;;;;;;;;16.60;99.90;;;;;;5072355;28;20068;-82
2022/09/13 04:57:55;;;;;;;0.22;0.22;;;16.60;99.90;;;;;;5066364;28;19962;-81
2022/09/13 05:00:21;;;;;;;0.20;0.20;;;16.60;99.90;;;;;;5072597;28;20045;-78
2022/09/13 05:02:47;;;;;;;;;;;16.70;99.90;;;;;;5053015;28;20052;-79
2022/09/13 05:05:12;;;;;;;0.30;0.30;;;16.70;99.90;;;;;;5069895;28;19920;-78
2022/09/13 05:07:38;;;;;;;;;;;16.70;99.90;;;;;;5067771;28;20532;-79
2022/09/13 05:10:04;;;;;;;2.45;1.85;;;16.70;99.90;;;;;;5071033;28;20112;-80
2022/09/13 05:12:30;;;;;;;;;;;16.70;99.90;;;;;;5072836;28;20044;-74
2022/09/13 05:14:55;;;;;;;0.20;0.20;;;16.70;99.90;;;;;;5053346;28;19916;-82
2022/09/13 05:17:21;;;;;;;0.20;0.20;;;16.70;99.90;;;;;;5069607;28;20232;-75
2022/09/13 05:19:48;;;;;;;0.35;0.35;;;16.70;99.90;;;;;;5071544;28;20080;-81
2022/09/13 05:22:14;;;;;;;0.38;0.38;;;16.70;99.90;;;;;;5066280;28;20044;-72
2022/09/13 05:24:39;;;;;;;0.20;0.20;;;16.70;99.90;;;;;;5058924;28;20044;-78
2022/09/13 05:27:09;;;;;;;0.20;0.20;;;16.70;99.90;;;;;;5068918;28;20096;-81
2022/09/13 05:29:36;;;;;;;0.30;0.30;;;16.70;99.90;;;;;;5061479;28;20617;-80
2022/09/13 05:32:03;;;;;;;0.30;0.30;;;16.70;99.90;;;;;;5053929;28;20063;-79
2022/09/13 05:34:28;;;;;;;0.20;0.20;;;16.70;99.90;;;;;;5068033;28;20052;-84
2022/09/13 05:36:54;;;;;;;0.30;0.30;;;16.60;99.90;;;;;;5070874;28;20537;-82
2022/09/13 05:39:21;;;;;;;;;;;16.60;99.90;;;;;;5049943;28;20146;-77
2022/09/13 05:41:46;;;;;;;0.27;0.27;;;16.60;99.90;;;;;;5094387;28;19924;-82
2022/09/13 05:44:12;;;;;;;0.20;0.20;;;16.60;99.90;;;;;;5066414;28;20123;-77
2022/09/13 05:46:38;;;;;;;0.22;0.22;;;16.60;99.90;;;;;;5071094;28;20079;-80
2022/09/13 05:49:04;;;;;;;0.20;0.20;;;16.60;99.90;;;;;;5067237;28;20441;-76
2022/09/13 05:51:30;;;;;;;;;;;16.60;99.90;;;;;;5067368;28;20497;-80
2022/09/13 05:53:58;;;;;;;0.20;0.20;;;16.60;99.90;;;;;;5059987;28;19929;-77
2022/09/13 05:56:27;;;;;;;0.25;0.25;;;16.60;99.90;;;;;;5066598;28;20055;-76
2022/09/13 05:58:54;;;;;;;0.20;0.20;;;16.70;99.90;;;;;;5053534;28;20059;-78
2022/09/13 06:01:27;;;;;;;0.20;0.20;;;16.70;99.90;;;;;;5069221;28;20088;-77
2022/09/13 06:03:58;;;;;;;0.20;0.20;;;16.70;99.90;;;;;;5066944;28;20063;-79
2022/09/13 06:06:24;;;;;;;1.85;0.38;;;16.70;99.90;;;;;;5062858;28;20040;-79
2022/09/13 06:08:55;;;;;;;0.20;0.20;;;16.80;99.90;;;;;;5066360;28;20047;-79
2022/09/13 06:11:22;;;;;;;0.30;0.30;;;16.70;99.90;;;;;;5067767;28;20044;-76
2022/09/13 06:13:52;;;;;;;0.73;0.73;;;16.80;99.90;;;;;;5069534;28;20126;-78
2022/09/13 06:16:18;;;;;;;0.28;0.28;;;16.80;99.90;;;;;;5066345;28;20056;-75
2022/09/13 06:18:44;;;;;;;0.20;0.20;;;16.80;99.90;;;;;;5076969;28;20066;-78
2022/09/13 06:21:16;;;;;;;0.30;0.30;;;16.90;99.90;;;;;;5047413;28;20052;-80
2022/09/13 06:23:46;;;;;;;0.28;0.28;;;16.90;99.90;;;;;;5068603;28;20049;-82
2022/09/13 06:26:14;;;;;;;0.30;0.30;;;16.90;99.90;;;;;;5064300;28;20049;-81
2022/09/13 06:28:41;;;;;;;0.30;0.30;;;16.90;99.90;;;;;;5066799;28;20040;-81
2022/09/13 06:31:12;;;;;;;0.40;0.40;;;17.00;99.90;;;;;;5078433;28;20037;-81
2022/09/13 06:33:40;;;;;;;5.18;0.40;;;16.90;99.90;;;;;;5048356;28;20033;-82
2022/09/13 06:36:12;;;;;;;0.20;0.20;;;17.00;99.90;;;;;;5064840;28;20375;-80
2022/09/13 06:38:39;;;;;;;0.20;0.20;;;17.10;99.90;;;;;;5074325;28;20049;-81
2022/09/13 06:41:08;;;;;;;6.88;0.70;;;17.20;99.90;;;;;;5062510;28;20074;-79
2022/09/13 06:43:34;;;;;;;0.35;0.35;;;17.20;99.90;;;;;;5061057;28;20056;-75
2022/09/13 06:46:12;;;;;;;0.55;0.55;;;17.20;99.90;;;;;;5051332;28;20072;-81
2022/09/13 06:48:40;;;;;;;0.20;0.20;;;17.30;99.90;;;;;;5060613;28;20037;-84
2022/09/13 06:51:12;;;;;;;0.20;0.20;;;17.30;99.90;;;;;;5070108;28;20444;-80
2022/09/13 06:53:38;;;;;;;0.20;0.20;;;17.40;99.90;;;;;;5062542;28;20048;-80
2022/09/13 06:56:09;;;;;;;0.20;0.20;;;17.40;99.90;;;;;;5064290;28;20490;-77
2022/09/13 06:58:36;;;;;;;0.20;0.20;;;17.40;99.90;;;;;;5061606;28;20474;-74
2022/09/13 07:01:14;;;;;;;0.60;0.60;;;17.40;99.90;;;;;;5044475;28;20394;-77
2022/09/13 07:03:54;;;;;;;0.30;0.30;;;17.40;99.90;;;;;;5064191;28;20154;-78
2022/09/13 07:06:25;;;;;;;0.20;0.20;;;17.40;99.90;;;;;;5066424;28;20036;-76
2022/09/13 07:08:53;;;;;;;0.28;0.28;;;17.40;99.90;;;;;;5049997;28;20079;-76
2022/09/13 07:11:22;;;;;;;0.20;0.20;;;17.60;99.90;;;;;;5070393;28;20041;-78
2022/09/13 07:13:53;;;;;;;0.90;0.75;;;17.60;99.90;;;;;;5063791;28;20131;-77
2022/09/13 07:16:21;;;;;;;0.28;0.28;;;17.70;99.90;;;;;;5064652;28;20044;-78
2022/09/13 07:18:54;;;;;;;0.20;0.20;;;17.80;99.90;;;;;;5060141;28;20406;-74
2022/09/13 07:21:21;;;;;;;0.32;0.32;;;17.80;99.90;;;;;;5082677;28;20109;-76
2022/09/13 07:23:47;;;;;;;0.25;0.25;;;18.10;99.90;;;;;;5061087;28;20040;-77
2022/09/13 07:26:12;;;;;;;0.20;0.20;;;17.70;99.90;;;;;;5046247;28;20041;-74
2022/09/13 07:28:39;;;;;;;;;;;17.90;99.90;;;;;;5070711;28;20037;-74
2022/09/13 07:31:15;;;;;;;14.80;1.57;;;17.70;99.90;;;;;;5068480;28;19920;-76
2022/09/13 07:33:42;;;;;;;0.15;0.15;;;17.60;99.90;;;;;;5067100;28;20093;-77
2022/09/13 07:36:08;;;;;;;0.10;0.10;;;17.50;99.90;;;;;;5062597;28;20051;-75
2022/09/13 07:38:35;;;;;;;0.30;0.30;;;17.50;99.90;;;;;;5065447;28;20075;-79
2022/09/13 07:41:05;;;;;;;0.20;0.20;;;17.60;99.90;;;;;;5061989;28;20075;-74
2022/09/13 07:43:33;;;;;;;0.10;0.10;;;17.70;99.90;;;;;;5064825;28;20487;-78
2022/09/13 07:46:04;;;;;;;0.28;0.28;;;17.80;99.90;;;;;;5059026;28;20043;-78
2022/09/13 07:48:32;;;;;;;0.20;0.20;;;17.90;99.90;;;;;;5064099;28;20052;-73
2022/09/13 07:51:02;;;;;;;0.25;0.25;;;18.00;99.90;;;;;;5060140;28;20047;-78
2022/09/13 07:53:29;;;;;;;0.20;0.20;;;18.20;99.90;;;;;;5064343;28;20066;-78
2022/09/13 07:56:04;;;;;;;0.20;0.20;;;18.40;99.90;;;;;;5064525;28;20402;-77
2022/09/13 07:58:30;;;;;;;0.20;0.20;;;18.40;99.90;;;;;;5066829;28;20132;-72
2022/09/13 08:01:09;;;;;;;0.30;0.30;;;18.50;99.90;;;;;;5071193;28;20045;-77
2022/09/13 08:03:35;;;;;;;0.40;0.40;;;18.40;99.90;;;;;;5050282;28;20064;-75
2022/09/13 08:06:02;;;;;;;0.20;0.20;;;18.40;99.90;;;;;;5048839;28;20478;-77
2022/09/13 08:08:29;;;;;;;0.30;0.30;;;18.40;99.90;;;;;;5025246;28;20048;-76
2022/09/13 08:10:55;;;;;;;0.28;0.28;;;18.50;99.90;;;;;;5042149;28;20486;-74
2022/09/13 08:13:20;;;;;;;;;;;18.60;99.90;;;;;;5058638;28;20044;-75
2022/09/13 08:15:47;;;;;;;0.40;0.40;;;18.70;99.90;;;;;;5066133;28;19926;-75
2022/09/13 08:18:13;;;;;;;0.30;0.30;;;18.70;99.90;;;;;;5072387;28;20049;-78
2022/09/13 08:20:38;;;;;;;;;;;18.70;99.90;;;;;;5065498;28;20101;-77
2022/09/13 08:23:06;;;;;;;0.20;0.20;;;18.60;99.90;;;;;;5064120;28;19921;-74
2022/09/13 08:25:35;;;;;;;0.20;0.20;;;18.70;99.90;;;;;;5068085;28;20489;-77
2022/09/13 08:28:06;;;;;;;0.20;0.20;;;18.90;99.90;;;;;;5056582;28;20040;-74
2022/09/13 08:30:34;;;;;;;0.40;0.40;;;19.00;99.90;;;;;;5049931;28;20044;-79
2022/09/13 08:33:01;;;;;;;0.30;0.30;;;18.90;99.90;;;;;;5069339;28;20048;-80
2022/09/13 08:35:28;;;;;;;0.30;0.30;;;18.70;99.90;;;;;;5077902;28;20074;-76
2022/09/13 08:37:53;;;;;;;0.20;0.20;;;18.60;99.90;;;;;;5043458;28;20037;-79
2022/09/13 08:40:20;;;;;;;;;;;18.60;99.90;;;;;;5056278;28;20109;-77
2022/09/13 08:43:05;;;;;;;0.30;0.30;;;18.70;99.90;;;;;;5065402;28;19998;-80
2022/09/13 08:45:31;;;;;;;0.20;0.20;;;18.80;99.90;;;;;;5065994;28;20431;-76
2022/09/13 08:48:23;;;;;;;;;;;19.00;99.90;;;;;;5062220;28;20036;-77
2022/09/13 08:50:53;;;;;;;0.13;0.13;;;19.00;99.90;;;;;;5061640;28;20152;-80
2022/09/13 08:53:22;;;;;;;0.20;0.20;;;18.90;99.90;;;;;;5063717;28;20059;-78
2022/09/13 08:56:42;;;;;;;0.20;0.20;;;18.80;99.90;;;;;;5049110;28;20456;-76
2022/09/13 08:59:50;;;;;;;0.20;0.20;;;18.70;99.90;;;;;;5006557;28;20049;-79
2022/09/13 09:02:37;;;;;;;0.20;0.20;;;18.80;99.90;;;;;;5045759;28;20418;-78
2022/09/13 09:05:18;;;;;;;0.20;0.20;;;19.00;99.90;;;;;;5065331;28;20454;-75
2022/09/13 09:07:51;;;;;;;10.23;1.10;;;19.20;99.90;;;;;;5065728;28;20028;-77
2022/09/13 09:10:26;;;;;;;0.20;0.20;;;19.20;99.90;;;;;;5067597;28;20078;-74
2022/09/13 09:12:58;;;;;;;0.30;0.30;;;19.20;99.90;;;;;;5064853;28;20409;-76
2022/09/13 09:15:44;;;;;;;0.30;0.30;;;19.30;99.90;;;;;;5065777;28;20052;-77
2022/09/13 09:18:25;;;;;;;0.20;0.20;;;19.30;99.90;;;;;;5066326;28;20406;-77
2022/09/13 09:20:55;;;;;;;0.20;0.20;;;19.30;99.90;;;;;;5067847;28;20071;-80
2022/09/13 09:23:28;;;;;;;0.20;0.20;;;19.20;99.90;;;;;;5068267;28;20048;-77
2022/09/13 09:26:14;;;;;;;0.40;0.40;;;19.20;99.90;;;;;;5067924;28;20045;-79
2022/09/13 09:28:40;;;;;;;0.20;0.20;;;19.20;99.90;;;;;;5069095;28;20068;-83
2022/09/13 09:31:24;;;;;;;;;;;19.40;99.90;;;;;;5051859;28;20466;-76
2022/09/13 09:34:09;;;;;;;0.40;0.40;;;19.60;99.90;;;;;;5059430;28;19936;-76
2022/09/13 09:36:57;;;;;;;0.30;0.30;;;19.90;99.90;;;;;;5038948;28;20045;-77
2022/09/13 09:39:28;;;;;;;0.20;0.20;;;20.00;99.90;;;;;;5060016;28;20494;-78
2022/09/13 09:41:56;;;;;;;0.20;0.20;;;20.00;99.90;;;;;;5060203;28;20063;-76
2022/09/13 09:44:25;;;;;;;0.40;0.40;;;20.10;99.90;;;;;;5067136;28;20059;-75
2022/09/13 09:47:09;;;;;;;0.20;0.20;;;20.10;99.90;;;;;;5079386;28;20485;-78
2022/09/13 09:50:27;;;;;;;0.20;0.20;;;20.20;99.90;;;;;;5069899;28;20044;-77
2022/09/13 09:52:55;;;;;;;0.20;0.20;;;20.30;99.90;;;;;;5074950;28;20044;-79
2022/09/13 09:55:26;;;;;;;0.30;0.30;;;20.50;99.90;;;;;;5067214;28;20142;-74
2022/09/13 09:57:59;;;;;;;0.20;0.20;;;20.50;99.90;;;;;;5055691;28;20094;-76
2022/09/13 10:00:31;;;;;;;0.30;0.30;;;20.40;99.90;;;;;;5061859;28;20056;-77
2022/09/13 10:03:01;;;;;;;0.20;0.20;;;20.20;99.90;;;;;;5046416;28;20492;-76
2022/09/13 10:05:29;;;;;;;1.85;0.77;;;20.10;99.90;;;;;;5078955;28;20564;-77
2022/09/13 10:08:06;;;;;;;0.10;0.10;;;20.00;99.90;;;;;;5048355;28;20394;-78
2022/09/13 10:10:41;;;;;;;0.22;0.22;;;19.70;99.90;;;;;;5060394;28;20083;-75
2022/09/13 10:13:17;;;;;;;0.20;0.20;;;19.40;99.90;;;;;;5054818;28;20044;-82
2022/09/13 10:15:53;;;;;;;0.30;0.30;;;19.30;99.90;;;;;;5048000;28;20119;-76
2022/09/13 10:18:21;;;;;;;0.30;0.30;;;19.50;99.90;;;;;;5060472;28;20367;-78
2022/09/13 10:21:23;;;;;;;0.13;0.13;;;19.80;99.90;;;;;;5057076;28;20527;-79
2022/09/13 10:23:49;;;;;;;0.20;0.20;;;20.00;99.90;;;;;;5065200;28;20047;-77
2022/09/13 10:26:21;;;;;;;0.30;0.30;;;20.20;99.90;;;;;;5068620;28;20063;-79
2022/09/13 10:28:50;;;;;;;0.20;0.20;;;20.30;99.90;;;;;;5070101;28;20067;-75
2022/09/13 10:31:19;;;;;;;0.20;0.20;;;20.20;99.90;;;;;;5047191;28;20389;-74
2022/09/13 10:33:56;;;;;;;0.30;0.30;;;20.00;99.90;;;;;;5058086;28;20486;-75
2022/09/13 10:36:29;;;;;;;0.20;0.20;;;19.90;99.90;;;;;;5056711;28;20116;-79
2022/09/13 10:39:02;;;;;;;0.22;0.22;;;19.70;99.90;;;;;;5064662;28;20036;-79
2022/09/13 10:41:38;;;;;;;0.20;0.20;;;19.80;99.90;;;;;;5064956;28;20055;-79
2022/09/13 10:44:21;;;;;;;1.45;0.38;;;20.10;99.90;;;;;;5063420;28;20052;-77
2022/09/13 10:46:49;;;;;;;0.30;0.30;;;20.40;99.90;;;;;;5056669;28;20490;-80
2022/09/13 10:49:34;;;;;;;0.20;0.20;;;20.70;99.90;;;;;;5050492;28;20048;-79
2022/09/13 10:52:00;;;;;;;0.63;0.57;;;20.90;99.90;;;;;;5044350;28;20086;-79
2022/09/13 10:54:25;;;;;;;0.20;0.20;;;20.90;99.90;;;;;;5057184;28;20044;-76
2022/09/13 10:56:51;;;;;;;0.20;0.20;;;20.80;99.90;;;;;;5065128;28;20446;-79
2022/09/13 10:59:28;;;;;;;;;;;20.60;99.90;;;;;;5059378;28;20041;-78
2022/09/13 11:02:12;;;;;;;0.20;0.20;;;20.40;99.90;;;;;;5068023;28;20253;-77
2022/09/13 11:05:17;;;;;;;0.10;0.10;;;20.50;99.90;;;;;;5061382;28;20121;-76
2022/09/13 11:07:58;;;;;;;0.25;0.25;;;20.60;99.90;;;;;;5060222;28;20040;-76
2022/09/13 11:10:46;;;;;;;0.30;0.30;;;20.70;99.90;;;;;;5061805;28;20044;-85
2022/09/13 11:13:26;;;;;;;0.20;0.20;;;20.70;99.90;;;;;;5066107;28;20138;-76
2022/09/13 11:16:26;;;;;;;0.20;0.20;;;20.70;99.90;;;;;;5063376;28;20072;-78
2022/09/13 11:18:52;;;;;;;0.35;0.35;;;20.80;99.90;;;;;;5067305;28;20106;-79
2022/09/13 11:21:17;;;;;;;1.38;0.50;;;20.90;99.90;;;;;;5061821;28;20475;-78
2022/09/13 11:23:56;;;;;;;0.82;0.82;;;21.00;99.90;;;;;;5058051;28;20087;-79
2022/09/13 11:27:01;;;;;;;0.20;0.20;;;21.10;99.90;;;;;;5064161;28;20075;-80
2022/09/13 11:30:09;;;;;;;0.30;0.30;;;21.20;99.90;;;;;;5064569;28;20373;-79
2022/09/13 11:32:46;;;;;;;0.20;0.20;;;21.30;99.90;;;;;;5024205;28;20124;-79
2022/09/13 11:35:33;;;;;;;4.00;0.50;;;21.50;99.90;;;;;;5027538;28;20068;-75
2022/09/13 11:39:00;;;;;;;0.20;0.20;;;21.70;99.90;;;;;;5049195;28;20488;-75
2022/09/13 11:41:41;;;;;;;0.20;0.20;;;21.60;99.90;;;;;;5018596;28;20051;-76
2022/09/13 11:44:16;;;;;;;0.28;0.28;;;21.20;99.90;;;;;;5028627;28;20045;-75
2022/09/13 11:47:02;;;;;;;0.30;0.30;;;21.10;99.90;;;;;;5030415;28;20048;-78
2022/09/13 11:49:53;;;;;;;0.15;0.15;;;21.10;99.90;;;;;;5050706;28;20045;-76
2022/09/13 11:52:33;;;;;;;0.28;0.28;;;21.10;99.90;;;;;;5060421;28;20047;-79
2022/09/13 11:55:10;;;;;;;0.20;0.20;;;21.20;99.90;;;;;;5067184;28;20052;-76
2022/09/13 11:58:03;;;;;;;0.20;0.20;;;21.50;99.90;;;;;;5037018;28;20048;-75
2022/09/13 12:00:44;;;;;;;0.40;0.40;;;21.70;99.90;;;;;;5062729;28;20097;-79
2022/09/13 12:03:09;;;;;;;0.28;0.28;;;21.70;99.90;;;;;;5071615;28;20078;-75
2022/09/13 12:05:41;;;;;;;0.15;0.15;;;21.70;99.90;;;;;;5057085;28;20044;-80
2022/09/13 12:08:43;;;;;;;0.30;0.30;;;21.50;99.90;;;;;;5066829;28;20453;-77
2022/09/13 12:11:22;;;;;;;0.20;0.20;;;21.40;99.90;;;;;;5044558;28;20390;-76
2022/09/13 12:13:51;;;;;;;0.30;0.30;;;21.40;99.90;;;;;;5052675;28;20388;-78
2022/09/13 12:16:39;;;;;;;0.50;0.50;;;21.30;99.90;;;;;;5063204;28;20111;-78
2022/09/13 12:19:14;;;;;;;1.75;0.40;;;21.40;99.90;;;;;;5065908;28;20040;-80
2022/09/13 12:21:43;;;;;;;0.25;0.25;;;21.30;99.90;;;;;;5055262;28;20045;-75
2022/09/13 12:24:30;;;;;;;0.22;0.22;;;21.10;99.90;;;;;;5077865;28;20465;-77
2022/09/13 12:26:55;;;;;;;;;;;21.10;99.90;;;;;;5062324;28;20041;-79
2022/09/13 12:29:38;;;;;;;0.30;0.30;;;21.20;99.90;;;;;;5060911;28;19924;-75
2022/09/13 12:32:06;;;;;;;0.17;0.17;;;21.20;99.90;;;;;;5065869;28;20048;-78
2022/09/13 12:34:45;;;;;;;0.20;0.20;;;21.30;99.90;;;;;;5064804;28;20044;-80
2022/09/13 12:37:35;;;;;;;0.40;0.40;;;21.30;99.90;;;;;;5060491;28;20537;-77
2022/09/13 12:40:08;;;;;;;0.20;0.20;;;21.30;99.90;;;;;;5066517;28;20406;-77
2022/09/13 12:43:02;;;;;;;0.20;0.20;;;21.30;99.90;;;;;;5062808;28;20441;-76
2022/09/13 12:45:48;;;;;;;0.30;0.30;;;21.30;99.90;;;;;;5049588;28;20045;-80
2022/09/13 12:48:34;;;;;;;0.30;0.30;;;21.20;99.90;;;;;;5057363;28;20394;-79
2022/09/13 12:51:00;;;;;;;;;;;21.20;99.90;;;;;;5069374;28;20118;-77
2022/09/13 12:53:50;;;;;;;0.20;0.20;;;21.20;99.90;;;;;;5064450;28;19956;-80
2022/09/13 12:56:24;;;;;;;0.10;0.10;;;21.20;99.90;;;;;;5061273;28;20079;-78
2022/09/13 12:59:08;;;;;;;0.35;0.35;;;21.30;99.90;;;;;;5070302;28;20108;-79
2022/09/13 13:01:34;;;;;;;0.20;0.20;;;21.30;99.90;;;;;;5061011;28;20408;-77
2022/09/13 13:04:21;;;;;;;0.40;0.40;;;21.30;99.90;;;;;;5062336;28;20342;-81
2022/09/13 13:07:05;;;;;;;0.20;0.20;;;21.40;99.90;;;;;;5042492;28;20051;-79
2022/09/13 13:09:52;;;;;;;0.38;0.38;;;21.40;99.90;;;;;;5055350;28;20349;-78
2022/09/13 13:12:30;;;;;;;0.45;0.45;;;21.30;99.90;;;;;;5066164;28;20041;-79
2022/09/13 13:14:58;;;;;;;0.20;0.20;;;21.30;99.90;;;;;;5065221;28;20402;-76
2022/09/13 13:17:50;;;;;;;0.75;0.75;;;21.40;99.90;;;;;;5058152;28;20290;-79
2022/09/13 13:20:43;;;;;;;0.25;0.25;;;21.50;99.90;;;;;;5063744;28;20524;-77
2022/09/13 13:23:22;;;;;;;0.20;0.20;;;21.70;99.90;;;;;;5048025;28;20541;-78
2022/09/13 13:25:59;;;;;;;0.20;0.20;;;22.00;99.90;;;;;;5038572;28;20037;-78
2022/09/13 13:28:43;;;;;;;0.52;0.52;;;22.40;99.90;;;;;;5050018;28;20094;-79
2022/09/13 13:31:26;;;;;;;0.20;0.20;;;22.50;99.90;;;;;;5060062;28;20068;-76